createdAt,value
2019-01-26T00:01:02.301Z,100459.02
2019-01-26T00:03:35.898Z,100456.84
2019-01-26T00:06:06.308Z,100454.67
2019-01-26T00:08:36.713Z,100457.71
2019-01-26T00:11:07.618Z,100459.45
2019-01-26T00:13:38.528Z,100457.13
2019-01-26T00:16:09.738Z,100452.42
2019-01-26T00:18:41.840Z,100459.73
2019-01-26T00:21:12.238Z,100451.95
2019-01-26T00:23:43.085Z,100455.67
2019-01-26T00:26:14.641Z,100454.77
2019-01-26T00:28:45.610Z,100446.97
2019-01-26T00:31:21.101Z,100430.01
2019-01-26T00:33:54.666Z,100428.59
2019-01-26T00:36:25.463Z,100435.19
2019-01-26T00:38:56.635Z,100432.94
2019-01-26T00:41:31.020Z,100432.27
2019-01-26T00:44:01.524Z,100428.42
2019-01-26T00:46:35.260Z,100444.44
2019-01-26T00:49:05.718Z,100426.13
2019-01-26T00:51:37.044Z,100430.80
2019-01-26T00:54:07.398Z,100433.92
2019-01-26T00:56:37.649Z,100430.76
2019-01-26T00:59:08.028Z,100429.72
2019-01-26T01:01:40.776Z,100433.68
2019-01-26T01:04:11.206Z,100432.38
2019-01-26T01:06:41.648Z,100430.59
2019-01-26T01:09:11.960Z,100429.02
2019-01-26T01:11:44.545Z,100426.80
2019-01-26T01:14:15.025Z,100428.03
2019-01-26T01:16:45.448Z,100422.72
2019-01-26T01:19:17.942Z,100415.80
2019-01-26T01:21:48.764Z,100416.63
2019-01-26T01:24:19.443Z,100419.20
2019-01-26T01:26:49.877Z,100420.55
2019-01-26T01:29:20.236Z,100409.58
2019-01-26T01:31:53.383Z,100416.91
2019-01-26T01:34:23.746Z,100409.45
2019-01-26T01:36:54.391Z,100409.25
2019-01-26T01:39:27.492Z,100401.80
2019-01-26T01:41:57.945Z,100393.70
2019-01-26T01:44:28.886Z,100394.02
2019-01-26T01:46:59.374Z,100391.44
2019-01-26T01:49:29.784Z,100397.11
2019-01-26T01:52:00.638Z,100392.63
2019-01-26T01:54:31.096Z,100390.88
2019-01-26T01:57:02.693Z,100398.31
2019-01-26T01:59:34.652Z,100387.00
2019-01-26T02:02:05.141Z,100386.35
2019-01-26T02:04:38.339Z,100389.36
2019-01-26T02:07:08.735Z,100382.78
2019-01-26T02:09:39.163Z,100384.05
2019-01-26T02:12:09.544Z,100376.69
2019-01-26T02:14:39.978Z,100377.56
2019-01-26T02:17:10.349Z,100375.91
2019-01-26T02:19:41.381Z,100382.25
2019-01-26T02:22:13.180Z,100379.16
2019-01-26T02:24:43.911Z,100375.86
2019-01-26T02:27:14.419Z,100374.99
2019-01-26T02:29:47.925Z,100372.98
2019-01-26T02:32:18.560Z,100362.19
2019-01-26T02:34:48.922Z,100379.03
2019-01-26T02:37:21.041Z,100375.64
2019-01-26T02:39:51.887Z,100365.59
2019-01-26T02:42:22.286Z,100358.61
2019-01-26T02:44:55.042Z,100358.17
2019-01-26T02:47:25.353Z,100367.53
2019-01-26T02:49:55.779Z,100368.89
2019-01-26T02:52:26.176Z,100370.15
2019-01-26T02:54:56.520Z,100368.36
2019-01-26T02:57:34.391Z,100365.26
2019-01-26T03:00:18.010Z,100367.45
2019-01-26T03:02:48.517Z,100359.94
2019-01-26T03:05:19.071Z,100363.34
2019-01-26T03:07:49.486Z,100361.16
2019-01-26T03:10:21.474Z,100360.06
2019-01-26T03:12:52.541Z,100358.07
2019-01-26T03:15:23.855Z,100360.55
2019-01-26T03:17:54.258Z,100359.97
2019-01-26T03:20:24.687Z,100355.13
2019-01-26T03:22:56.071Z,100356.96
2019-01-26T03:25:26.488Z,100355.08
2019-01-26T03:27:59.751Z,100350.34
2019-01-26T03:30:32.914Z,100355.91
2019-01-26T03:33:03.346Z,100351.59
2019-01-26T03:35:33.794Z,100360.02
2019-01-26T03:38:04.231Z,100363.95
2019-01-26T03:40:37.036Z,100355.19
2019-01-26T03:43:07.566Z,100356.05
2019-01-26T03:45:38.152Z,100357.61
2019-01-26T03:48:10.092Z,100355.42
2019-01-26T03:51:04.357Z,100354.52
2019-01-26T03:53:54.594Z,100351.89
2019-01-26T03:56:25.029Z,100351.94
2019-01-26T03:59:02.663Z,100350.44
2019-01-26T04:01:33.193Z,100353.55
2019-01-26T04:04:03.583Z,100347.06
2019-01-26T04:06:34.794Z,100344.92
2019-01-26T04:09:09.380Z,100345.31
2019-01-26T04:11:40.130Z,100351.84
2019-01-26T04:14:10.544Z,100344.39
2019-01-26T04:16:40.902Z,100339.64
2019-01-26T04:19:11.671Z,100333.89
2019-01-26T04:21:42.058Z,100338.44
2019-01-26T04:24:12.594Z,100342.50
2019-01-26T04:26:42.989Z,100338.19
2019-01-26T04:29:13.425Z,100330.78
2019-01-26T04:31:43.763Z,100331.61
2019-01-26T04:34:14.471Z,100331.39
2019-01-26T04:36:45.149Z,100334.30
2019-01-26T04:39:17.814Z,100324.75
2019-01-26T04:41:48.643Z,100320.48
2019-01-26T04:44:20.837Z,100314.34
2019-01-26T04:46:51.171Z,100316.66
2019-01-26T04:49:21.599Z,100317.50
2019-01-26T04:51:51.966Z,100318.37
2019-01-26T04:54:22.335Z,100315.70
2019-01-26T04:56:52.979Z,100316.14
2019-01-26T04:59:23.377Z,100320.30
2019-01-26T05:01:53.780Z,100315.06
2019-01-26T05:04:24.141Z,100314.56
2019-01-26T05:06:54.940Z,100308.97
2019-01-26T05:09:26.700Z,100310.17
2019-01-26T05:11:57.272Z,100308.03
2019-01-26T05:14:27.670Z,100305.70
2019-01-26T05:17:00.802Z,100307.35
2019-01-26T05:19:31.216Z,100309.42
2019-01-26T05:22:01.755Z,100301.97
2019-01-26T05:24:32.122Z,100298.05
2019-01-26T05:27:02.540Z,100289.31
2019-01-26T05:29:35.022Z,100289.20
2019-01-26T05:32:05.739Z,100276.08
2019-01-26T05:34:36.110Z,100273.90
2019-01-26T05:37:06.619Z,100271.28
2019-01-26T05:39:37.315Z,100279.66
2019-01-26T05:42:07.837Z,100280.23
2019-01-26T05:44:40.132Z,100278.14
2019-01-26T05:47:10.702Z,100285.78
2019-01-26T05:49:42.734Z,100285.78
2019-01-26T05:52:13.190Z,100282.04
2019-01-26T05:54:43.688Z,100291.30
2019-01-26T05:57:16.516Z,100291.20
2019-01-26T05:59:46.928Z,100285.97
2019-01-26T06:02:17.596Z,100296.85
2019-01-26T06:04:48.082Z,100294.68
2019-01-26T06:07:21.554Z,100294.63
2019-01-26T06:09:51.906Z,100298.39
2019-01-26T06:12:43.963Z,100289.39
2019-01-26T06:15:16.749Z,100294.84
2019-01-26T06:17:54.766Z,100293.53
2019-01-26T06:20:24.763Z,100281.33
2019-01-26T06:22:55.117Z,100286.88
2019-01-26T06:25:25.959Z,100278.92
2019-01-26T06:27:56.346Z,100281.33
2019-01-26T06:30:27.440Z,100289.07
2019-01-26T06:32:57.969Z,100284.16
2019-01-26T06:35:28.831Z,100284.44
2019-01-26T06:37:59.354Z,100280.61
2019-01-26T06:40:30.163Z,100288.47
2019-01-26T06:43:03.628Z,100280.89
2019-01-26T06:45:37.499Z,100273.09
2019-01-26T06:48:08.064Z,100286.78
2019-01-26T06:50:39.483Z,100273.75
2019-01-26T06:53:10.418Z,100269.65
2019-01-26T06:55:43.068Z,100276.30
2019-01-26T06:58:13.784Z,100284.94
2019-01-26T07:00:44.294Z,100276.30
2019-01-26T07:03:14.697Z,100273.58
2019-01-26T07:06:04.304Z,100274.41
2019-01-26T07:08:34.624Z,100274.30
2019-01-26T07:11:05.009Z,100277.73
2019-01-26T07:13:35.444Z,100283.12
2019-01-26T07:16:05.967Z,100279.14
2019-01-26T07:18:36.447Z,100281.00
2019-01-26T07:21:06.877Z,100285.36
2019-01-26T07:23:39.387Z,100277.95
2019-01-26T07:26:10.276Z,100276.58
2019-01-26T07:28:40.822Z,100282.62
2019-01-26T07:31:12.195Z,100274.02
2019-01-26T07:33:43.488Z,100273.58
2019-01-26T07:36:13.945Z,100268.23
2019-01-26T07:38:44.412Z,100273.36
2019-01-26T07:41:14.833Z,100272.05
2019-01-26T07:43:45.478Z,100266.92
2019-01-26T07:46:15.878Z,100267.09
2019-01-26T07:48:46.684Z,100270.03
2019-01-26T07:51:17.107Z,100259.56
2019-01-26T07:53:48.691Z,100263.87
2019-01-26T07:56:19.195Z,100262.62
2019-01-26T07:58:55.897Z,100263.38
2019-01-26T08:01:29.734Z,100271.29
2019-01-26T08:04:00.405Z,100263.49
2019-01-26T08:06:31.464Z,100264.20
2019-01-26T08:09:07.230Z,100254.92
2019-01-26T08:11:37.740Z,100259.23
2019-01-26T08:14:11.025Z,100248.93
2019-01-26T08:16:43.298Z,100248.98
2019-01-26T08:19:18.537Z,100258.65
2019-01-26T08:21:52.114Z,100258.15
2019-01-26T08:24:23.283Z,100255.42
2019-01-26T08:26:53.683Z,100268.63
2019-01-26T08:29:24.294Z,100268.63
2019-01-26T08:31:54.715Z,100271.88
2019-01-26T08:34:25.693Z,100270.30
2019-01-26T08:36:59.053Z,100275.55
2019-01-26T08:39:34.636Z,100273.75
2019-01-26T08:42:05.452Z,100277.98
2019-01-26T08:44:36.731Z,100280.13
2019-01-26T08:47:07.599Z,100269.91
2019-01-26T08:49:39.452Z,100267.67
2019-01-26T08:52:09.852Z,100267.34
2019-01-26T08:54:41.817Z,100262.50
2019-01-26T08:57:14.621Z,100268.07
2019-01-26T08:59:48.435Z,100273.72
2019-01-26T09:02:37.775Z,100279.41
2019-01-26T09:05:10.267Z,100267.98
2019-01-26T09:07:41.715Z,100270.63
2019-01-26T09:10:12.631Z,100278.41
2019-01-26T09:12:43.110Z,100276.95
2019-01-26T09:15:15.948Z,100280.33
2019-01-26T09:17:47.141Z,100281.64
2019-01-26T09:20:18.129Z,100275.48
2019-01-26T09:22:48.609Z,100282.58
2019-01-26T09:25:19.200Z,100277.59
2019-01-26T09:27:53.055Z,100289.13
2019-01-26T09:30:26.346Z,100287.04
2019-01-26T09:32:57.638Z,100286.51
2019-01-26T09:35:31.307Z,100281.05
2019-01-26T09:38:01.777Z,100282.47
2019-01-26T09:40:32.228Z,100274.17
2019-01-26T09:43:02.765Z,100274.06
2019-01-26T09:45:35.007Z,100274.89
2019-01-26T09:48:08.418Z,100278.59
2019-01-26T09:50:38.892Z,100270.36
2019-01-26T09:53:10.004Z,100268.07
2019-01-26T09:55:43.578Z,100263.25
2019-01-26T09:58:16.942Z,100267.87
2019-01-26T10:00:47.442Z,100262.64
2019-01-26T10:03:17.902Z,100266.03
2019-01-26T10:05:51.028Z,100269.66
2019-01-26T10:08:24.735Z,100266.40
2019-01-26T10:10:55.561Z,100271.91
2019-01-26T10:13:26.055Z,100278.66
2019-01-26T10:15:56.375Z,100274.30
2019-01-26T10:18:27.113Z,100273.92
2019-01-26T10:20:57.492Z,100273.75
2019-01-26T10:23:27.996Z,100272.05
2019-01-26T10:25:59.649Z,100261.90
2019-01-26T10:28:32.035Z,100258.19
2019-01-26T10:31:03.454Z,100255.93
2019-01-26T10:33:33.883Z,100249.27
2019-01-26T10:36:23.535Z,100244.89
2019-01-26T10:38:57.183Z,100244.92
2019-01-26T10:41:47.890Z,100243.05
2019-01-26T10:44:27.803Z,100243.73
2019-01-26T10:47:01.095Z,100246.41
2019-01-26T10:49:31.474Z,100249.00
2019-01-26T10:52:01.923Z,100246.27
2019-01-26T10:54:35.446Z,100233.63
2019-01-26T10:57:07.323Z,100231.66
2019-01-26T10:59:37.899Z,100228.83
2019-01-26T11:02:08.780Z,100233.14
2019-01-26T11:04:39.162Z,100234.16
2019-01-26T11:07:09.626Z,100227.58
2019-01-26T11:09:39.986Z,100224.64
2019-01-26T11:12:10.496Z,100223.53
2019-01-26T11:14:40.858Z,100222.96
2019-01-26T11:17:13.157Z,100219.95
2019-01-26T11:19:43.518Z,100219.70
2019-01-26T11:22:14.400Z,100208.41
2019-01-26T11:24:44.831Z,100209.98
2019-01-26T11:27:15.430Z,100210.47
2019-01-26T11:29:45.925Z,100205.57
2019-01-26T11:32:16.384Z,100197.41
2019-01-26T11:34:47.039Z,100191.11
2019-01-26T11:37:17.458Z,100189.41
2019-01-26T11:39:54.942Z,100178.92
2019-01-26T11:42:25.468Z,100174.34
2019-01-26T11:45:24.065Z,100177.95
2019-01-26T11:47:56.983Z,100171.86
2019-01-26T11:50:33.237Z,100169.63
2019-01-26T11:53:03.690Z,100160.92
2019-01-26T11:55:40.675Z,100156.11
2019-01-26T11:58:11.539Z,100151.53
2019-01-26T12:00:59.375Z,100151.47
2019-01-26T12:03:31.880Z,100148.50
2019-01-26T12:06:20.061Z,100140.90
2019-01-26T12:08:50.856Z,100149.70
2019-01-26T12:11:21.673Z,100133.89
2019-01-26T12:13:53.667Z,100131.20
2019-01-26T12:16:27.108Z,100133.00
2019-01-26T12:18:56.638Z,100126.72
2019-01-26T12:21:27.086Z,100116.20
2019-01-26T12:23:57.509Z,100117.59
2019-01-26T12:26:28.052Z,100112.58
2019-01-26T12:28:58.819Z,100100.95
2019-01-26T12:31:29.456Z,100112.72
2019-01-26T12:34:03.021Z,100100.58
2019-01-26T12:36:33.757Z,100100.95
2019-01-26T12:39:05.915Z,100101.20
2019-01-26T12:41:36.668Z,100095.92
2019-01-26T12:44:07.390Z,100087.30
2019-01-26T12:46:39.930Z,100081.69
2019-01-26T12:49:11.655Z,100079.27
2019-01-26T12:51:42.957Z,100084.67
2019-01-26T12:54:13.492Z,100075.77
2019-01-26T12:56:46.071Z,100077.39
2019-01-26T12:59:16.537Z,100064.85
2019-01-26T13:01:46.909Z,100063.66
2019-01-26T13:04:17.191Z,100056.83
2019-01-26T13:06:49.831Z,100052.36
2019-01-26T13:09:20.257Z,100052.17
2019-01-26T13:11:50.699Z,100043.46
2019-01-26T13:14:21.526Z,100039.16
2019-01-26T13:16:52.262Z,100027.67
2019-01-26T13:19:22.890Z,100030.52
2019-01-26T13:21:53.547Z,100025.20
2019-01-26T13:24:27.002Z,100027.22
2019-01-26T13:26:57.979Z,100022.07
2019-01-26T13:29:28.416Z,100021.36
2019-01-26T13:31:58.981Z,100012.46
2019-01-26T13:34:29.453Z,100007.62
2019-01-26T13:37:00.373Z,99998.56
2019-01-26T13:39:30.840Z,100002.80
2019-01-26T13:42:02.104Z,99997.78
2019-01-26T13:44:32.749Z,99991.77
2019-01-26T13:47:03.553Z,99980.47
2019-01-26T13:49:34.759Z,99981.31
2019-01-26T13:52:07.399Z,99980.37
2019-01-26T13:54:38.082Z,99981.91
2019-01-26T13:57:08.872Z,99978.75
2019-01-26T13:59:39.844Z,99975.91
2019-01-26T14:02:13.066Z,99973.55
2019-01-26T14:04:46.530Z,99976.59
2019-01-26T14:07:17.112Z,99958.98
2019-01-26T14:09:47.466Z,99964.35
2019-01-26T14:12:18.210Z,99961.95
2019-01-26T14:14:48.713Z,99951.67
2019-01-26T14:17:20.496Z,99957.94
2019-01-26T14:19:51.493Z,99956.70
2019-01-26T14:22:22.027Z,99947.73
2019-01-26T14:24:52.435Z,99948.41
2019-01-26T14:27:23.397Z,99951.52
2019-01-26T14:29:54.106Z,99945.41
2019-01-26T14:32:26.268Z,99940.45
2019-01-26T14:34:56.724Z,99936.03
2019-01-26T14:37:27.493Z,99940.72
2019-01-26T14:39:58.241Z,99937.16
2019-01-26T14:42:29.982Z,99931.61
2019-01-26T14:45:00.334Z,99920.77
2019-01-26T14:47:30.751Z,99925.34
2019-01-26T14:50:01.159Z,99914.28
2019-01-26T14:52:33.912Z,99910.16
2019-01-26T14:55:08.294Z,99906.51
2019-01-26T14:57:38.990Z,99901.19
2019-01-26T15:00:18.371Z,99893.39
2019-01-26T15:02:48.722Z,99896.46
2019-01-26T15:05:19.171Z,99894.36
2019-01-26T15:07:49.616Z,99893.68
2019-01-26T15:10:19.991Z,99880.30
2019-01-26T15:12:50.417Z,99875.20
2019-01-26T15:15:21.686Z,99872.57
2019-01-26T15:17:52.181Z,99874.41
2019-01-26T15:20:27.656Z,99865.56
2019-01-26T15:22:58.082Z,99867.17
2019-01-26T15:25:31.440Z,99860.39
2019-01-26T15:28:03.804Z,99853.42
2019-01-26T15:30:38.848Z,99848.43
2019-01-26T15:33:11.123Z,99845.55
2019-01-26T15:35:42.205Z,99844.79
2019-01-26T15:38:15.023Z,99844.08
2019-01-26T15:40:45.604Z,99836.51
2019-01-26T15:43:18.097Z,99834.15
2019-01-26T15:45:50.007Z,99829.88
2019-01-26T15:48:22.971Z,99837.14
2019-01-26T15:50:53.406Z,99833.43
2019-01-26T15:53:24.027Z,99826.23
2019-01-26T15:55:58.011Z,99826.75
2019-01-26T15:58:34.767Z,99813.78
2019-01-26T16:01:08.172Z,99797.89
2019-01-26T16:03:40.995Z,99804.52
2019-01-26T16:06:11.861Z,99797.59
2019-01-26T16:08:42.238Z,99798.20
2019-01-26T16:11:12.935Z,99790.41
2019-01-26T16:13:43.289Z,99789.77
2019-01-26T16:16:14.019Z,99788.37
2019-01-26T16:18:45.857Z,99781.30
2019-01-26T16:21:17.156Z,99778.89
2019-01-26T16:23:47.743Z,99771.63
2019-01-26T16:26:18.296Z,99767.02
2019-01-26T16:28:48.997Z,99769.12
2019-01-26T16:31:20.682Z,99767.09
2019-01-26T16:33:51.058Z,99763.98
2019-01-26T16:36:21.918Z,99762.90
2019-01-26T16:38:53.125Z,99755.89
2019-01-26T16:41:23.714Z,99755.67
2019-01-26T16:43:54.221Z,99749.19
2019-01-26T16:46:24.807Z,99747.42
2019-01-26T16:48:55.426Z,99749.48
2019-01-26T16:51:26.279Z,99737.69
2019-01-26T16:53:56.907Z,99735.55
2019-01-26T16:56:27.440Z,99738.32
2019-01-26T16:58:58.553Z,99733.30
2019-01-26T17:01:47.999Z,99730.05
2019-01-26T17:04:44.923Z,99721.58
2019-01-26T17:07:38.171Z,99711.09
2019-01-26T17:13:39.770Z,99705.99
2019-01-26T17:16:53.919Z,99693.00
2019-01-26T17:19:44.043Z,99696.94
2019-01-26T17:22:15.883Z,99694.46
2019-01-26T17:24:46.275Z,99677.72
2019-01-26T17:27:16.741Z,99676.97
2019-01-26T17:29:47.979Z,99676.19
2019-01-26T17:32:19.081Z,99668.84
2019-01-26T17:34:52.357Z,99665.29
2019-01-26T17:37:24.313Z,99666.48
2019-01-26T17:39:54.955Z,99660.83
2019-01-26T17:42:25.408Z,99663.08
2019-01-26T17:44:56.715Z,99653.22
2019-01-26T17:47:27.166Z,99647.72
2019-01-26T17:49:57.571Z,99648.41
2019-01-26T17:52:29.978Z,99636.75
2019-01-26T17:55:00.437Z,99634.55
2019-01-26T17:57:30.836Z,99628.30
2019-01-26T18:08:56.848Z,99617.96
2019-01-26T18:19:07.565Z,99583.56
2019-01-26T18:21:40.959Z,99576.41
2019-01-26T18:24:12.322Z,99580.48
2019-01-26T18:26:42.864Z,99572.32
2019-01-26T18:29:13.532Z,99570.94
2019-01-26T18:31:44.614Z,99558.36
2019-01-26T18:34:14.999Z,99556.28
2019-01-26T18:36:45.569Z,99539.72
2019-01-26T18:39:16.324Z,99544.88
2019-01-26T18:41:48.703Z,99537.88
2019-01-26T18:44:19.344Z,99537.47
2019-01-26T18:46:50.010Z,99533.95
2019-01-26T18:49:20.736Z,99527.74
2019-01-26T18:51:51.371Z,99519.88
2019-01-26T18:54:22.119Z,99516.27
2019-01-26T18:56:52.528Z,99507.88
2019-01-26T18:59:24.298Z,99499.28
2019-01-26T19:01:54.784Z,99501.98
2019-01-26T19:04:34.208Z,99493.79
2019-01-26T19:07:04.576Z,99495.59
2019-01-26T19:09:34.960Z,99491.49
2019-01-26T19:12:05.626Z,99482.52
2019-01-26T19:14:36.028Z,99473.83
2019-01-26T19:17:06.559Z,99474.28
2019-01-26T19:19:36.926Z,99472.97
2019-01-26T19:22:07.395Z,99465.39
2019-01-26T19:24:37.713Z,99459.90
2019-01-26T19:27:08.126Z,99450.64
2019-01-26T19:29:38.580Z,99454.03
2019-01-26T19:32:09.038Z,99447.93
2019-01-26T19:34:39.643Z,99444.08
2019-01-26T19:37:10.733Z,99438.75
2019-01-26T19:39:41.217Z,99438.01
2019-01-26T19:42:12.827Z,99445.71
2019-01-26T19:44:56.616Z,99438.13
2019-01-26T19:47:29.495Z,99436.98
2019-01-26T19:50:01.791Z,99431.91
2019-01-26T19:52:33.775Z,99421.20
2019-01-26T19:55:07.986Z,99423.91
2019-01-26T19:57:39.334Z,99416.59
2019-01-26T20:00:10.497Z,99411.50
2019-01-26T20:02:40.965Z,99408.88
2019-01-26T20:05:15.875Z,99402.49
2019-01-26T20:07:46.637Z,99403.80
2019-01-26T20:10:17.813Z,99394.00
2019-01-26T20:12:48.304Z,99394.30
2019-01-26T20:15:20.667Z,99383.11
2019-01-26T20:17:51.141Z,99378.41
2019-01-26T20:20:36.070Z,99368.86
2019-01-26T20:23:06.528Z,99364.55
2019-01-26T20:25:37.007Z,99360.63
2019-01-26T20:28:07.766Z,99352.84
2019-01-26T20:30:38.575Z,99341.95
2019-01-26T20:33:09.002Z,99342.11
2019-01-26T20:35:39.458Z,99326.88
2019-01-26T20:38:10.268Z,99318.15
2019-01-26T20:40:40.627Z,99315.24
2019-01-26T20:43:11.513Z,99307.37
2019-01-26T20:45:42.266Z,99297.80
2019-01-26T20:48:12.593Z,99300.95
2019-01-26T20:50:42.991Z,99279.42
2019-01-26T20:53:13.467Z,99271.41
2019-01-26T20:55:47.494Z,99275.22
2019-01-26T20:58:17.906Z,99270.23
2019-01-26T21:00:49.742Z,99268.61
2019-01-26T21:03:22.457Z,99264.50
2019-01-26T21:05:52.886Z,99262.63
2019-01-26T21:08:23.246Z,99261.31
2019-01-26T21:10:56.762Z,99256.53
2019-01-26T21:13:29.500Z,99242.39
2019-01-26T21:15:59.910Z,99237.23
2019-01-26T21:18:30.329Z,99231.17
2019-01-26T21:21:01.182Z,99218.98
2019-01-26T21:23:31.588Z,99219.67
2019-01-26T21:26:02.028Z,99207.50
2019-01-26T21:28:32.951Z,99205.70
2019-01-26T21:31:04.094Z,99196.62
2019-01-26T21:33:34.385Z,99190.39
2019-01-26T21:36:06.230Z,99176.97
2019-01-26T21:38:36.763Z,99179.98
2019-01-26T21:41:07.142Z,99176.80
2019-01-26T21:43:37.768Z,99166.23
2019-01-26T21:46:09.136Z,99168.11
2019-01-26T21:48:40.610Z,99150.22
2019-01-26T21:51:11.028Z,99148.82
2019-01-26T21:53:41.481Z,99146.97
2019-01-26T21:56:11.970Z,99136.09
2019-01-26T21:58:43.094Z,99140.96
2019-01-26T22:01:13.545Z,99134.32
2019-01-26T22:03:43.976Z,99126.45
2019-01-26T22:06:14.477Z,99134.86
2019-01-26T22:08:47.618Z,99127.95
2019-01-26T22:11:18.018Z,99115.61
2019-01-26T22:13:48.535Z,99121.77
2019-01-26T22:16:19.411Z,99111.19
2019-01-26T22:18:49.842Z,99108.48
2019-01-26T22:21:20.270Z,99098.77
2019-01-26T22:23:50.665Z,99098.77
2019-01-26T22:26:21.050Z,99093.24
2019-01-26T22:28:51.404Z,99088.83
2019-01-26T22:31:21.774Z,99084.16
2019-01-26T22:33:52.149Z,99082.67
2019-01-26T22:36:22.752Z,99066.95
2019-01-26T22:38:53.270Z,99067.05
2019-01-26T22:41:23.641Z,99070.30
2019-01-26T22:43:54.070Z,99072.92
2019-01-26T22:46:24.539Z,99059.91
2019-01-26T22:48:54.976Z,99067.86
2019-01-26T22:51:25.318Z,99057.47
2019-01-26T22:53:55.730Z,99045.30
2019-01-26T22:56:26.110Z,99037.59
2019-01-26T22:58:56.456Z,99030.67
2019-01-26T23:01:33.483Z,99021.80
2019-01-26T23:04:25.320Z,99017.75
2019-01-26T23:07:33.348Z,99019.78
2019-01-26T23:10:58.472Z,99005.46
2019-01-26T23:13:48.351Z,99001.44
2019-01-26T23:16:55.536Z,98987.84
2019-01-26T23:20:15.640Z,98974.93
2019-01-26T23:23:15.089Z,98966.07
2019-01-26T23:26:00.851Z,98970.45
2019-01-26T23:29:13.519Z,98956.95
2019-01-26T23:31:44.244Z,98945.44
2019-01-26T23:34:14.630Z,98936.09
2019-01-26T23:36:45.432Z,98923.54
2019-01-26T23:39:15.895Z,98914.92
2019-01-26T23:41:46.337Z,98909.98
2019-01-26T23:44:16.714Z,98896.50
2019-01-26T23:46:47.144Z,98893.24
2019-01-26T23:49:17.642Z,98886.78
2019-01-26T23:51:47.842Z,98879.84
2019-01-26T23:54:18.167Z,98872.75
2019-01-26T23:56:48.523Z,98867.97
2019-01-26T23:59:19.172Z,98858.34
